Time;durP1;ratioP1;P1;durP2;ratioP2;P2;SDS_P1;SDS_P2;PMS_P1;PMS_P2;Temp;Humidity;BMP_temperature;BMP_pressure;BME280_temperature;BME280_humidity;BME280_pressure;Samples;Min_cycle;Max_cycle;Signal;HPM_P1;HPM_P2
2024/03/03 00:01:16;;;;;;;28.47;16.33;;;9.20;78.20;;;11.02;55.87;95994.00;5032972;28;20041;-61
2024/03/03 00:03:44;;;;;;;25.33;17.37;;;9.20;78.20;;;11.03;55.80;95982.31;5033155;28;20045;-61
2024/03/03 00:06:12;;;;;;;28.87;15.80;;;9.30;78.20;;;11.03;55.88;95983.16;5033145;28;20037;-61
2024/03/03 00:08:39;;;;;;;27.53;16.27;;;9.30;78.30;;;11.03;55.94;95975.16;5015126;28;20060;-61
2024/03/03 00:11:07;;;;;;;27.53;15.93;;;9.30;78.20;;;11.07;56.07;95977.41;5015493;28;20048;-61
2024/03/03 00:13:35;;;;;;;32.87;18.90;;;9.30;78.10;;;11.06;55.85;95976.59;5032993;28;20037;-61
2024/03/03 00:16:04;;;;;;;28.23;18.33;;;9.30;78.30;;;11.09;56.01;95970.00;5033096;28;20148;-63
2024/03/03 00:18:37;;;;;;;32.33;18.23;;;9.30;79.10;;;11.10;56.04;95964.50;5031469;28;20037;-61
2024/03/03 00:21:12;;;;;;;28.98;16.38;;;9.30;78.00;;;11.01;56.19;95957.72;5025408;28;20048;-62
2024/03/03 00:23:40;;;;;;;28.27;17.67;;;9.40;77.80;;;11.02;56.23;95956.72;5033061;28;20467;-62
2024/03/03 00:26:08;;;;;;;29.07;18.43;;;9.40;78.10;;;11.02;56.63;95930.09;5014789;28;20507;-62
2024/03/03 00:28:36;;;;;;;32.97;19.43;;;9.30;78.20;;;11.05;56.13;95943.00;5032117;28;20064;-62
2024/03/03 00:31:04;;;;;;;70.43;30.97;;;9.30;78.30;;;11.01;56.56;95947.06;5032714;28;20052;-62
2024/03/03 00:33:31;;;;;;;52.87;24.70;;;9.20;78.80;;;10.98;56.66;95940.31;5014251;28;20068;-63
2024/03/03 00:35:59;;;;;;;40.97;23.67;;;9.20;78.90;;;10.98;56.17;95945.66;5032640;28;20517;-62
2024/03/03 00:38:26;;;;;;;37.63;22.17;;;9.20;79.00;;;10.92;56.49;95946.47;5013975;28;20475;-62
2024/03/03 00:40:54;;;;;;;40.23;24.03;;;9.00;79.50;;;10.90;56.68;95947.72;5014061;28;20518;-62
2024/03/03 00:43:22;;;;;;;33.77;19.43;;;9.10;79.70;;;10.91;56.67;95942.16;5032312;28;20041;-62
2024/03/03 00:45:50;;;;;;;31.87;18.87;;;9.10;79.20;;;10.94;56.38;95932.97;5032512;28;20056;-62
2024/03/03 00:48:17;;;;;;;33.30;20.93;;;9.20;79.20;;;10.93;56.50;95944.63;5013955;28;20387;-62
2024/03/03 00:50:45;;;;;;;31.57;18.80;;;9.10;79.10;;;10.90;56.52;95937.88;5014528;28;20207;-62
2024/03/03 00:53:12;;;;;;;31.80;17.63;;;9.00;79.50;;;10.91;56.80;95928.03;5014414;28;20097;-62
2024/03/03 00:55:47;;;;;;;33.37;20.00;;;9.10;79.60;;;10.92;56.42;95935.00;5032262;28;20068;-62
2024/03/03 00:58:14;;;;;;;35.90;20.70;;;9.10;79.20;;;10.89;56.56;95938.06;5030219;28;20044;-62
2024/03/03 01:00:43;;;;;;;37.10;20.50;;;9.00;79.50;;;10.88;56.83;95931.13;5014349;28;20042;-62
2024/03/03 01:03:11;;;;;;;30.17;19.40;;;9.10;79.50;;;10.87;56.59;95932.94;5032169;28;20052;-62
2024/03/03 01:05:39;;;;;;;38.03;21.90;;;9.10;79.50;;;10.89;56.64;95930.91;5032243;28;20046;-62
2024/03/03 01:08:06;;;;;;;35.00;19.87;;;9.10;79.50;;;10.88;56.58;95929.28;5013829;28;20552;-62
2024/03/03 01:10:34;;;;;;;36.40;19.87;;;9.10;79.70;;;10.86;56.77;95926.00;5032012;28;20049;-62
2024/03/03 01:13:02;;;;;;;30.00;18.57;;;9.00;79.70;;;10.88;56.69;95923.13;5013251;28;20042;-62
2024/03/03 01:15:30;;;;;;;33.43;18.87;;;9.00;79.70;;;10.87;56.93;95913.50;5014126;28;20037;-62
2024/03/03 01:17:57;;;;;;;28.97;18.40;;;9.00;79.80;;;10.85;56.67;95903.06;5031331;28;20049;-62
2024/03/03 01:20:25;;;;;;;34.37;19.77;;;9.00;79.80;;;10.84;56.64;95902.25;5013743;28;20041;-62
2024/03/03 01:22:52;;;;;;;33.13;18.30;;;9.00;79.90;;;10.83;56.77;95910.44;5019445;28;20054;-62
2024/03/03 01:25:20;;;;;;;32.43;17.30;;;9.00;79.80;;;10.80;56.92;95906.34;5028969;28;20049;-62
2024/03/03 01:27:48;;;;;;;27.97;16.70;;;9.00;79.90;;;10.78;57.00;95891.59;5014270;28;20045;-62
2024/03/03 01:30:16;;;;;;;30.60;19.03;;;9.00;79.90;;;10.81;56.84;95885.84;5037549;28;20049;-62
2024/03/03 01:32:43;;;;;;;32.07;20.07;;;9.00;80.20;;;10.78;57.08;95888.94;5031394;28;20186;-62
2024/03/03 01:35:11;;;;;;;36.97;19.13;;;9.00;80.00;;;10.77;57.14;95892.63;5038492;28;20045;-62
2024/03/03 01:37:39;;;;;;;31.87;20.13;;;8.90;80.30;;;10.76;57.04;95888.31;5013904;28;20042;-62
2024/03/03 01:40:09;;;;;;;31.17;18.80;;;9.00;80.30;;;10.75;57.30;95878.69;5031133;28;20040;-62
2024/03/03 01:42:37;;;;;;;28.93;17.40;;;8.90;80.50;;;10.73;57.07;95875.41;5013345;28;20068;-62
2024/03/03 01:45:05;;;;;;;32.00;19.07;;;8.90;80.60;;;10.72;57.34;95871.94;5023229;28;20048;-63
2024/03/03 01:47:34;;;;;;;32.60;20.03;;;8.90;80.60;;;10.73;57.42;95878.91;5013230;28;20049;-62
2024/03/03 01:50:02;;;;;;;32.53;18.13;;;8.90;80.70;;;10.70;57.22;95882.00;5012581;28;20430;-62
2024/03/03 01:52:30;;;;;;;31.77;17.50;;;8.90;81.10;;;10.70;57.46;95887.31;4996834;28;20061;-62
2024/03/03 01:54:58;;;;;;;35.57;18.97;;;8.80;81.50;;;10.71;57.47;95883.59;5013215;28;20498;-62
2024/03/03 01:57:26;;;;;;;32.07;19.47;;;8.90;81.10;;;10.75;57.31;95879.50;5031073;28;20388;-62
2024/03/03 01:59:54;;;;;;;29.87;18.10;;;9.00;81.10;;;10.76;57.19;95875.84;5018552;28;20419;-62
2024/03/03 02:02:22;;;;;;;31.43;18.47;;;9.00;80.80;;;10.78;57.27;95875.63;5021724;28;20049;-62
2024/03/03 02:04:50;;;;;;;33.47;18.73;;;9.00;80.70;;;10.79;57.11;95875.41;5029373;28;20107;-62
2024/03/03 02:07:20;;;;;;;33.10;20.37;;;9.00;80.50;;;10.79;57.44;95877.25;5031500;28;20041;-62
2024/03/03 02:09:48;;;;;;;35.33;19.90;;;9.00;80.40;;;10.77;57.53;95877.47;4996770;28;20064;-61
2024/03/03 02:12:17;;;;;;;30.43;20.07;;;9.00;80.30;;;10.76;57.38;95872.34;5013577;28;20041;-62
2024/03/03 02:14:47;;;;;;;35.47;21.13;;;9.00;80.30;;;10.77;57.20;95871.31;5030813;28;20494;-62
2024/03/03 02:17:15;;;;;;;35.57;19.27;;;9.00;80.30;;;10.75;57.26;95865.38;5031171;28;20403;-62
2024/03/03 02:19:42;;;;;;;39.07;21.63;;;9.00;80.20;;;10.73;57.29;95867.44;5012993;28;20053;-62
2024/03/03 02:22:10;;;;;;;33.47;20.00;;;8.90;80.20;;;10.69;57.58;95872.34;5012111;28;20041;-62
2024/03/03 02:24:38;;;;;;;35.90;20.27;;;8.80;80.70;;;10.66;57.16;95863.94;5028886;28;20487;-62
2024/03/03 02:27:06;;;;;;;30.90;19.27;;;8.80;81.00;;;10.64;57.30;95875.63;5021455;28;20042;-62
2024/03/03 02:29:33;;;;;;;33.13;19.20;;;8.80;80.80;;;10.62;57.54;95871.53;5020736;28;20068;-62
2024/03/03 02:32:01;;;;;;;38.73;21.57;;;8.80;80.70;;;10.59;57.64;95882.59;5020485;28;20053;-62
2024/03/03 02:34:29;;;;;;;31.23;20.60;;;8.70;81.10;;;10.56;57.10;95875.81;5012157;28;20046;-62
2024/03/03 02:36:56;;;;;;;37.17;21.80;;;8.70;81.00;;;10.52;57.29;95879.91;5012729;28;20045;-62
2024/03/03 02:39:24;;;;;;;34.03;21.07;;;8.60;81.00;;;10.49;57.58;95876.84;5030394;28;20045;-62
2024/03/03 02:41:52;;;;;;;37.40;20.63;;;8.60;81.30;;;10.47;57.15;95878.88;5015087;28;20041;-62
2024/03/03 02:44:21;;;;;;;28.77;18.33;;;8.60;81.20;;;10.43;57.48;95873.97;5016538;28;20429;-62
2024/03/03 02:46:49;;;;;;;32.43;20.10;;;8.60;81.40;;;10.42;57.29;95855.56;5017498;28;20430;-62
2024/03/03 02:49:17;;;;;;;33.97;19.47;;;8.50;81.60;;;10.39;57.81;95862.13;5032461;28;20053;-62
2024/03/03 02:51:45;;;;;;;34.87;20.03;;;8.50;81.70;;;10.38;57.82;95854.34;5034469;28;20046;-62
2024/03/03 02:54:12;;;;;;;35.90;20.03;;;8.50;81.40;;;10.36;57.33;95853.72;5034657;28;20041;-62
2024/03/03 02:56:40;;;;;;;35.47;20.43;;;8.50;81.20;;;10.35;57.36;95857.38;5016517;28;20060;-60
2024/03/03 02:59:08;;;;;;;36.70;20.07;;;8.50;80.90;;;10.33;57.72;95860.28;5026082;28;20040;-60
2024/03/03 03:01:35;;;;;;;34.50;20.03;;;8.50;81.00;;;10.33;57.79;95870.06;5041052;28;20041;-61
2024/03/03 03:04:03;;;;;;;35.00;20.63;;;8.50;81.40;;;10.31;57.80;95866.78;5016515;28;20057;-61
2024/03/03 03:06:31;;;;;;;36.67;21.37;;;8.50;81.60;;;10.29;57.66;95864.31;5040454;28;20050;-61
2024/03/03 03:08:59;;;;;;;43.27;23.93;;;8.40;81.80;;;10.28;57.58;95867.19;5016099;28;20057;-61
2024/03/03 03:11:26;;;;;;;47.60;26.23;;;8.40;81.30;;;10.27;57.80;95871.66;5016668;28;20052;-61
2024/03/03 03:13:54;;;;;;;55.40;27.70;;;8.50;81.40;;;10.25;57.80;95874.56;5034122;28;20045;-61
2024/03/03 03:16:22;;;;;;;50.93;26.40;;;8.40;81.80;;;10.25;57.78;95881.69;5015805;28;20037;-61
2024/03/03 03:18:49;;;;;;;54.47;28.50;;;8.50;81.90;;;10.24;57.78;95872.09;5015625;28;20061;-61
2024/03/03 03:21:19;;;;;;;53.77;29.10;;;8.40;81.80;;;10.22;57.58;95871.47;5041013;28;20037;-61
2024/03/03 03:23:47;;;;;;;53.17;26.23;;;8.40;81.60;;;10.20;57.62;95869.00;5033833;28;20514;-61
2024/03/03 03:26:15;;;;;;;51.27;27.93;;;8.40;81.60;;;10.15;58.18;95871.44;5033704;28;20053;-61
2024/03/03 03:28:42;;;;;;;48.07;24.40;;;8.30;82.20;;;10.12;57.79;95871.03;5033741;28;20056;-61
2024/03/03 03:31:10;;;;;;;36.90;21.23;;;8.20;82.50;;;10.07;58.14;95870.84;5025222;28;20064;-61
2024/03/03 03:33:38;;;;;;;42.70;22.60;;;8.10;82.90;;;10.02;58.26;95876.72;5033795;28;20060;-61
2024/03/03 03:36:10;;;;;;;35.90;20.33;;;8.10;83.20;;;9.99;58.28;95875.31;5033672;28;20041;-61
2024/03/03 03:38:37;;;;;;;34.73;20.40;;;8.00;83.00;;;9.96;57.89;95873.03;5033149;28;20046;-61
2024/03/03 03:41:05;;;;;;;39.10;20.77;;;8.00;83.10;;;9.94;57.88;95876.91;5033586;28;20042;-61
2024/03/03 03:43:33;;;;;;;38.00;21.47;;;8.00;83.10;;;9.92;57.83;95879.78;5033782;28;20049;-60
2024/03/03 03:46:00;;;;;;;39.50;21.23;;;8.00;82.70;;;9.84;58.25;95893.25;5015549;28;20057;-61
2024/03/03 03:48:28;;;;;;;36.43;21.17;;;7.80;82.80;;;9.76;58.11;95894.25;5033034;28;20490;-60
2024/03/03 03:50:56;;;;;;;41.73;20.63;;;7.70;83.80;;;9.75;58.54;95891.78;5033158;28;20045;-61
2024/03/03 03:53:23;;;;;;;39.57;20.93;;;7.70;84.40;;;9.75;58.40;95889.13;5015563;28;20064;-61
2024/03/03 03:55:51;;;;;;;37.60;20.20;;;7.80;83.90;;;9.76;58.20;95885.47;5033302;28;20071;-61
2024/03/03 03:58:18;;;;;;;42.37;20.90;;;7.80;83.40;;;9.76;58.29;95883.63;5032796;28;20044;-60
2024/03/03 04:00:46;;;;;;;40.07;23.93;;;7.80;82.80;;;9.78;58.42;95878.09;5033358;28;20046;-61
2024/03/03 04:03:14;;;;;;;43.20;26.10;;;7.90;82.70;;;9.76;58.16;95872.97;5033142;28;20053;-60
2024/03/03 04:05:42;;;;;;;43.53;23.37;;;7.90;82.50;;;9.78;58.21;95875.44;5033413;28;20045;-61
2024/03/03 04:08:09;;;;;;;40.70;23.67;;;7.90;82.40;;;9.78;57.92;95862.97;5023781;28;20042;-61
2024/03/03 04:10:37;;;;;;;44.37;24.07;;;7.90;81.80;;;9.77;57.90;95866.66;5033102;28;20462;-53
2024/03/03 04:13:04;;;;;;;45.87;24.17;;;7.90;81.70;;;9.76;58.22;95866.84;5032775;28;20054;-52
2024/03/03 04:15:32;;;;;;;39.47;21.40;;;8.00;81.80;;;9.74;57.98;95875.03;5033213;28;20044;-50
2024/03/03 04:18:00;;;;;;;38.37;21.50;;;7.90;81.60;;;9.76;57.84;95867.66;5032289;28;20053;-50
2024/03/03 04:20:27;;;;;;;35.43;20.87;;;7.90;81.80;;;9.76;58.14;95870.31;5033116;28;20038;-51
2024/03/03 04:22:55;;;;;;;33.33;19.27;;;8.00;81.80;;;9.77;58.23;95871.13;5039371;28;20048;-49
2024/03/03 04:25:23;;;;;;;37.60;20.73;;;7.90;81.90;;;9.76;58.04;95872.97;5029986;28;20056;-52
2024/03/03 04:27:50;;;;;;;38.80;21.63;;;7.90;81.80;;;9.74;58.32;95872.38;5032065;28;20049;-50
2024/03/03 04:30:18;;;;;;;35.43;19.83;;;7.90;82.30;;;9.72;57.95;95869.09;5032593;28;20044;-53
2024/03/03 04:32:46;;;;;;;36.60;20.40;;;7.90;82.50;;;9.70;57.91;95863.16;5032875;28;20054;-52
2024/03/03 04:35:14;;;;;;;32.50;20.23;;;7.80;82.80;;;9.66;58.32;95869.88;5024934;28;20593;-50
2024/03/03 04:37:41;;;;;;;37.27;21.70;;;7.70;82.70;;;9.63;58.22;95867.63;5032650;28;20494;-49
2024/03/03 04:40:10;;;;;;;37.60;21.97;;;7.70;82.50;;;9.57;58.36;95860.44;5032123;28;20057;-50
2024/03/03 04:42:37;;;;;;;36.20;21.40;;;7.60;83.20;;;9.50;58.11;95870.22;5032823;28;20041;-51
2024/03/03 04:45:06;;;;;;;38.83;21.07;;;7.50;83.90;;;9.48;58.52;95874.91;5032380;28;20041;-53
2024/03/03 04:47:35;;;;;;;32.67;21.03;;;7.50;83.60;;;9.46;58.18;95865.31;5032501;28;20033;-50
2024/03/03 04:50:03;;;;;;;33.87;20.07;;;7.60;83.30;;;9.46;58.32;95864.50;5031841;28;20046;-51
2024/03/03 04:52:30;;;;;;;35.37;21.13;;;7.60;83.20;;;9.44;58.43;95864.69;5032473;28;20045;-51
2024/03/03 04:54:58;;;;;;;32.87;20.27;;;7.60;82.90;;;9.44;58.32;95864.69;5032068;28;20150;-49
2024/03/03 04:57:26;;;;;;;38.10;20.17;;;7.60;82.80;;;9.42;58.24;95857.91;5014426;28;20048;-53
2024/03/03 04:59:54;;;;;;;33.43;19.27;;;7.60;83.20;;;9.41;58.44;95858.94;5031800;28;20053;-51
2024/03/03 05:02:21;;;;;;;37.53;21.13;;;7.60;83.40;;;9.39;58.21;95859.13;5032189;28;20045;-51
2024/03/03 05:04:49;;;;;;;34.27;20.70;;;7.60;83.50;;;9.37;58.36;95855.06;5031441;28;20426;-51
2024/03/03 05:07:17;;;;;;;36.80;20.60;;;7.50;83.80;;;9.34;58.60;95860.75;5031908;28;20057;-50
2024/03/03 05:09:45;;;;;;;39.93;21.30;;;7.40;83.80;;;9.30;58.63;95862.97;5031606;28;20053;-50
2024/03/03 05:12:13;;;;;;;42.00;23.40;;;7.40;84.90;;;9.25;58.47;95871.53;5031967;28;20052;-52
2024/03/03 05:14:40;;;;;;;41.43;21.93;;;7.40;84.20;;;9.23;58.66;95870.09;5032059;28;20048;-51
2024/03/03 05:17:09;;;;;;;36.37;20.70;;;7.30;84.40;;;9.21;58.80;95872.13;5031882;28;20053;-55
2024/03/03 05:19:36;;;;;;;38.67;20.97;;;7.30;84.50;;;9.20;58.48;95867.81;5031445;28;20046;-53
2024/03/03 05:22:04;;;;;;;38.10;21.23;;;7.40;84.10;;;9.16;58.83;95862.09;5014292;28;20052;-51
2024/03/03 05:24:32;;;;;;;36.80;20.30;;;7.30;84.10;;;9.16;58.65;95871.88;5031668;28;20056;-49
2024/03/03 05:26:59;;;;;;;41.90;21.07;;;7.30;83.80;;;9.13;58.57;95866.97;5031430;28;20072;-50
2024/03/03 05:29:28;;;;;;;38.37;21.93;;;7.30;84.40;;;9.10;58.96;95873.50;5031331;28;20395;-51
2024/03/03 05:31:56;;;;;;;38.97;21.40;;;7.20;84.50;;;9.09;58.82;95879.00;5030699;28;20045;-51
2024/03/03 05:34:23;;;;;;;43.73;21.17;;;7.20;84.90;;;9.08;59.06;95886.13;5031233;28;20049;-51
2024/03/03 05:36:51;;;;;;;40.23;21.37;;;7.20;84.80;;;9.07;58.94;95890.63;5031394;28;20155;-49
2024/03/03 05:39:19;;;;;;;36.60;20.50;;;7.20;84.80;;;9.09;59.30;95884.28;5031165;28;20045;-51
2024/03/03 05:41:46;;;;;;;45.17;21.40;;;7.30;84.80;;;9.10;59.09;95886.75;5031555;28;20053;-48
2024/03/03 05:44:14;;;;;;;35.93;20.63;;;7.30;84.80;;;9.12;59.01;95883.91;5010251;28;20426;-48
2024/03/03 05:46:41;;;;;;;36.73;20.57;;;7.30;84.50;;;9.12;59.13;95878.63;5013800;28;20529;-53
2024/03/03 05:49:09;;;;;;;40.60;21.47;;;7.40;84.30;;;9.12;59.17;95879.41;5030755;28;20049;-50
2024/03/03 05:51:37;;;;;;;34.47;20.47;;;7.30;84.50;;;9.12;59.21;95879.41;5031445;28;20049;-51
2024/03/03 05:54:06;;;;;;;37.03;19.93;;;7.30;84.10;;;9.12;59.03;95875.97;5031063;28;20041;-53
2024/03/03 05:56:33;;;;;;;39.17;20.90;;;7.30;84.30;;;9.12;59.24;95875.97;5031307;28;20048;-51
2024/03/03 05:59:05;;;;;;;37.97;21.00;;;7.30;84.50;;;9.11;58.99;95880.47;5030524;28;20068;-50
2024/03/03 06:01:32;;;;;;;42.07;23.57;;;7.20;84.10;;;9.06;59.10;95877.56;5031375;28;20525;-50
2024/03/03 06:04:00;;;;;;;37.30;22.63;;;7.10;84.90;;;9.03;59.39;95876.13;5013662;28;20045;-48
2024/03/03 06:06:28;;;;;;;35.07;21.30;;;7.10;85.20;;;9.00;59.56;95881.00;5030991;28;20037;-49
2024/03/03 06:08:56;;;;;;;35.90;21.80;;;7.10;86.00;;;9.02;59.63;95874.47;5030887;28;20049;-52
2024/03/03 06:11:23;;;;;;;34.27;20.03;;;7.10;85.60;;;9.02;59.59;95881.63;5031029;28;20042;-50
2024/03/03 06:13:51;;;;;;;38.17;21.60;;;7.10;85.70;;;9.06;59.54;95883.69;5030957;28;20499;-51
2024/03/03 06:16:19;;;;;;;39.30;20.57;;;7.20;85.50;;;9.09;59.44;95882.44;5022930;28;20495;-52
2024/03/03 06:18:46;;;;;;;37.80;20.30;;;7.20;85.30;;;9.11;59.27;95883.09;5030598;28;20517;-53
2024/03/03 06:21:14;;;;;;;31.47;19.77;;;7.30;85.10;;;9.15;59.36;95881.69;5030859;28;20037;-51
2024/03/03 06:23:42;;;;;;;35.33;19.23;;;7.40;84.80;;;9.18;58.84;95886.59;5030715;28;20094;-50
2024/03/03 06:26:09;;;;;;;37.87;20.23;;;7.40;84.70;;;9.19;59.41;95885.59;5030860;28;20418;-51
2024/03/03 06:28:37;;;;;;;34.30;19.97;;;7.40;84.50;;;9.22;59.47;95889.69;5030350;28;20049;-48
2024/03/03 06:31:04;;;;;;;37.13;21.93;;;7.40;84.30;;;9.25;59.71;95891.97;5029329;28;20053;-50
2024/03/03 06:33:32;;;;;;;38.37;21.83;;;7.40;84.40;;;9.27;59.60;95890.75;5030642;28;20049;-51
2024/03/03 06:36:00;;;;;;;39.83;22.00;;;7.50;84.40;;;9.29;59.38;95890.56;5030671;28;20053;-49
2024/03/03 06:38:27;;;;;;;39.43;20.00;;;7.50;84.40;;;9.30;59.59;95894.03;5030403;28;20045;-50
2024/03/03 06:40:55;;;;;;;37.87;20.63;;;7.50;84.40;;;9.33;59.27;95891.00;5030801;28;20057;-50
2024/03/03 06:43:23;;;;;;;34.90;21.77;;;7.50;84.60;;;9.36;59.47;95891.41;5030485;28;20585;-48
2024/03/03 06:45:51;;;;;;;37.40;20.43;;;7.60;84.60;;;9.39;59.57;95891.00;5030676;28;20518;-51
2024/03/03 06:48:18;;;;;;;47.53;26.23;;;7.60;84.50;;;9.40;59.61;95886.50;5029981;28;20045;-51
2024/03/03 06:50:46;;;;;;;43.23;25.17;;;7.60;85.20;;;9.44;59.56;95893.06;5013326;28;20053;-52
2024/03/03 06:53:14;;;;;;;38.77;23.13;;;7.70;85.30;;;9.49;59.80;95898.63;5030419;28;20041;-51
2024/03/03 06:55:41;;;;;;;42.40;21.37;;;7.70;85.20;;;9.55;59.97;95894.34;5030457;28;20057;-50
2024/03/03 06:58:09;;;;;;;38.53;21.07;;;7.90;85.30;;;9.62;59.63;95892.56;5030189;28;20042;-49
2024/03/03 07:00:37;;;;;;;41.47;22.80;;;7.90;85.30;;;9.65;59.72;95889.50;5030585;28;20041;-50
2024/03/03 07:05:35;;;;;;;38.83;23.93;;;8.00;85.70;;;9.76;59.82;95880.13;5030348;28;20418;-49
2024/03/03 07:08:03;;;;;;;36.37;20.90;;;8.00;85.40;;;9.77;59.82;95879.09;5029854;28;20048;-49
2024/03/03 07:10:32;;;;;;;32.13;19.17;;;8.00;85.50;;;9.76;60.11;95880.13;5030371;28;20052;-48
2024/03/03 07:12:59;;;;;;;37.33;21.07;;;8.00;85.40;;;9.77;59.75;95884.41;5030344;28;20045;-52
2024/03/03 07:15:27;;;;;;;39.27;21.73;;;8.00;85.20;;;9.80;59.96;95881.38;5030278;28;20033;-53
2024/03/03 07:17:54;;;;;;;33.60;19.67;;;8.00;85.10;;;9.83;59.88;95881.00;5030269;28;20048;-47
2024/03/03 07:20:22;;;;;;;35.03;19.30;;;8.10;85.20;;;9.82;59.81;95880.16;5030037;28;20426;-53
2024/03/03 07:22:50;;;;;;;35.40;20.90;;;8.10;85.20;;;9.84;60.01;95871.97;5030563;28;20097;-50
2024/03/03 07:25:17;;;;;;;37.40;21.80;;;8.10;85.30;;;9.85;59.75;95879.75;5029885;28;20048;-51
2024/03/03 07:27:45;;;;;;;35.50;21.00;;;8.10;85.60;;;9.85;59.94;95870.97;5028269;28;20053;-51
2024/03/03 07:30:13;;;;;;;37.40;21.57;;;8.10;86.20;;;9.84;60.32;95880.78;5031978;28;20398;-49
2024/03/03 07:32:40;;;;;;;38.83;20.13;;;8.10;86.00;;;9.89;59.90;95885.50;5000168;28;20057;-48
2024/03/03 07:35:08;;;;;;;40.17;19.93;;;8.10;86.00;;;9.90;59.92;95879.16;5033204;28;20041;-51
2024/03/03 07:37:36;;;;;;;32.67;19.23;;;8.10;85.40;;;9.93;60.33;95880.63;5015728;28;20041;-47
2024/03/03 07:40:08;;;;;;;33.27;19.30;;;8.10;85.50;;;9.96;60.16;95882.84;5014568;28;20049;-47
2024/03/03 07:42:36;;;;;;;29.57;19.10;;;8.20;85.40;;;9.99;59.97;95869.97;5014827;28;20511;-50
2024/03/03 07:45:04;;;;;;;32.90;18.23;;;8.30;85.30;;;10.03;60.20;95873.88;5032596;28;20041;-50
2024/03/03 07:47:31;;;;;;;29.63;18.47;;;8.30;85.10;;;10.06;60.23;95864.66;5032526;28;20045;-49
2024/03/03 07:49:59;;;;;;;31.67;19.13;;;8.30;84.70;;;10.11;59.81;95864.91;5031943;28;20426;-49
2024/03/03 07:52:27;;;;;;;29.70;18.13;;;8.40;84.40;;;10.15;59.79;95863.47;5032720;28;20042;-50
2024/03/03 07:54:54;;;;;;;35.67;20.20;;;8.40;84.00;;;10.16;59.80;95862.47;5031132;28;20045;-49
2024/03/03 07:57:23;;;;;;;29.53;18.47;;;8.40;84.00;;;10.19;59.97;95874.53;5032714;28;20049;-52
2024/03/03 07:59:51;;;;;;;35.17;19.20;;;8.50;84.10;;;10.22;59.98;95877.59;5032069;28;20069;-49
2024/03/03 08:02:18;;;;;;;33.77;18.37;;;8.50;83.90;;;10.23;59.80;95875.75;5032031;28;20052;-47
2024/03/03 08:04:46;;;;;;;31.47;17.03;;;8.50;83.70;;;10.28;59.32;95881.28;5032357;28;20069;-52
2024/03/03 08:07:14;;;;;;;32.30;17.80;;;8.60;83.40;;;10.32;59.52;95879.91;5031272;28;20068;-48
2024/03/03 08:09:41;;;;;;;29.30;18.40;;;8.60;83.10;;;10.33;59.49;95878.91;5031754;28;20446;-52
2024/03/03 08:12:09;;;;;;;35.17;19.23;;;8.60;82.70;;;10.35;59.38;95868.03;5032028;28;20049;-50
2024/03/03 08:14:37;;;;;;;31.30;19.43;;;8.70;82.60;;;10.33;59.71;95859.44;5032094;28;20085;-51
2024/03/03 08:17:04;;;;;;;33.93;20.07;;;8.70;82.70;;;10.36;59.54;95859.03;5014256;28;20041;-51
2024/03/03 08:19:32;;;;;;;29.23;17.90;;;8.70;82.80;;;10.38;59.40;95860.47;5031337;28;20037;-48
2024/03/03 08:22:00;;;;;;;31.40;19.03;;;8.70;83.10;;;10.42;59.79;95860.88;5032119;28;20414;-53
2024/03/03 08:24:28;;;;;;;32.73;20.20;;;8.70;83.00;;;10.46;59.80;95869.28;5032114;28;20387;-51
2024/03/03 08:26:57;;;;;;;30.83;17.53;;;8.80;83.00;;;10.44;59.63;95866.81;5031726;28;20072;-51
2024/03/03 08:29:24;;;;;;;36.63;20.97;;;8.80;82.70;;;10.43;59.88;95858.03;5031272;28;20076;-49
2024/03/03 08:31:52;;;;;;;34.37;20.83;;;8.90;82.40;;;10.47;59.66;95862.91;5014074;28;20049;-53
2024/03/03 08:34:20;;;;;;;34.17;20.27;;;8.90;82.70;;;10.51;59.57;95864.97;5031231;28;20053;-50
2024/03/03 08:36:47;;;;;;;34.30;20.33;;;8.90;83.10;;;10.57;59.66;95876.66;5031384;28;20517;-51
2024/03/03 08:39:16;;;;;;;36.03;22.27;;;8.90;84.10;;;10.61;59.76;95872.56;5029876;28;20045;-49
2024/03/03 08:41:44;;;;;;;34.23;20.03;;;9.00;83.10;;;10.63;59.70;95863.34;5031708;28;20049;-49
2024/03/03 08:44:11;;;;;;;35.97;20.53;;;9.00;83.30;;;10.68;59.61;95876.03;5031588;28;20053;-49
2024/03/03 08:46:39;;;;;;;37.87;20.97;;;9.00;83.00;;;10.73;59.83;95878.09;5013432;28;20060;-53
2024/03/03 08:49:07;;;;;;;35.63;20.83;;;9.00;82.60;;;10.77;59.60;95877.47;5029341;28;20085;-50
2024/03/03 08:51:40;;;;;;;34.97;20.67;;;9.10;82.30;;;10.82;59.39;95871.53;5031447;28;20515;-52
2024/03/03 08:54:08;;;;;;;35.28;18.85;;;9.20;82.20;;;10.84;59.54;95867.63;5031294;28;20498;-52
2024/03/03 08:56:36;;;;;;;30.90;18.60;;;9.30;81.30;;;10.88;59.43;95870.72;5031204;28;20044;-51
2024/03/03 08:59:03;;;;;;;34.43;19.27;;;9.30;81.30;;;10.94;58.98;95875.19;5030414;28;20049;-52
2024/03/03 09:01:31;;;;;;;31.73;18.73;;;9.40;81.10;;;10.97;59.29;95869.47;5031124;28;20491;-49
2024/03/03 09:04:00;;;;;;;33.20;20.40;;;9.40;80.50;;;11.02;59.10;95868.84;5013111;28;20052;-50
2024/03/03 09:06:28;;;;;;;32.43;17.43;;;9.50;80.50;;;11.10;59.12;95865.16;5030943;28;20438;-48
2024/03/03 09:08:56;;;;;;;26.00;16.63;;;9.50;80.30;;;11.14;58.73;95871.69;5030879;28;20267;-49
2024/03/03 09:11:23;;;;;;;27.37;15.73;;;9.50;79.70;;;11.17;58.62;95865.97;5030184;28;20045;-53
2024/03/03 09:13:52;;;;;;;26.57;15.30;;;9.50;78.90;;;11.22;58.66;95858.13;5030053;28;20537;-50
2024/03/03 09:16:19;;;;;;;25.73;16.33;;;9.60;78.70;;;11.27;57.93;95863.66;5031232;28;20050;-50
2024/03/03 09:18:49;;;;;;;25.27;16.27;;;9.60;78.50;;;11.31;58.05;95861.41;5031359;28;20528;-51
2024/03/03 09:21:17;;;;;;;23.73;14.63;;;9.70;78.00;;;11.36;57.54;95861.59;5031691;28;20042;-50
2024/03/03 09:23:46;;;;;;;31.17;18.10;;;9.80;77.50;;;11.38;57.45;95860.38;5031612;28;20052;-48
2024/03/03 09:26:14;;;;;;;23.33;15.17;;;9.80;76.60;;;11.42;57.87;95861.56;5031361;28;20049;-47
2024/03/03 09:28:42;;;;;;;24.20;16.90;;;9.80;76.40;;;11.46;57.29;95855.81;5031265;28;20167;-48
2024/03/03 09:31:09;;;;;;;24.23;14.53;;;9.90;76.00;;;11.48;57.51;95856.44;5031668;28;20522;-48
2024/03/03 09:33:38;;;;;;;21.93;14.37;;;10.00;75.90;;;11.52;57.18;95858.47;5031557;28;20046;-49
2024/03/03 09:36:07;;;;;;;24.47;16.17;;;10.00;75.40;;;11.53;57.16;95862.75;5031527;28;20050;-51
2024/03/03 09:38:34;;;;;;;23.50;16.07;;;10.00;75.20;;;11.56;57.18;95864.19;5030724;28;20049;-49
2024/03/03 09:41:02;;;;;;;24.20;15.83;;;10.00;75.30;;;11.59;57.25;95864.59;5031354;28;20392;-50
2024/03/03 09:43:38;;;;;;;24.33;15.50;;;10.00;75.60;;;11.63;57.08;95873.81;5030994;28;20045;-50
2024/03/03 09:46:06;;;;;;;25.30;15.13;;;10.00;75.60;;;11.70;56.71;95864.97;5031396;28;20049;-50
2024/03/03 09:48:39;;;;;;;24.20;16.77;;;10.00;75.10;;;11.71;57.03;95863.91;4997779;28;20049;-47
2024/03/03 09:51:07;;;;;;;25.97;15.97;;;10.10;75.40;;;11.73;56.76;95868.03;5021906;28;20045;-50
2024/03/03 09:53:37;;;;;;;27.37;17.07;;;10.10;75.40;;;11.74;56.80;95868.84;5007112;28;20046;-50
2024/03/03 09:56:11;;;;;;;27.43;17.03;;;10.10;75.50;;;11.76;56.83;95869.44;5020919;28;20037;-53
2024/03/03 09:58:38;;;;;;;24.27;15.90;;;10.10;76.00;;;11.77;56.75;95860.44;5007122;28;20045;-49
2024/03/03 10:01:08;;;;;;;34.30;19.93;;;10.20;76.00;;;11.80;56.90;95865.31;5025201;28;20037;-48
2024/03/03 10:03:38;;;;;;;28.97;16.73;;;10.20;75.80;;;11.83;56.69;95854.25;5008149;28;20052;-49
2024/03/03 10:06:10;;;;;;;24.23;15.80;;;10.30;75.80;;;11.82;56.73;95861.44;5007229;28;20045;-47
2024/03/03 10:08:41;;;;;;;25.97;17.57;;;10.20;75.40;;;11.86;56.55;95863.66;5006432;28;20414;-50
2024/03/03 10:11:17;;;;;;;25.73;16.33;;;10.30;75.40;;;11.88;56.47;95866.94;5023108;28;20046;-48
2024/03/03 10:13:47;;;;;;;26.10;14.77;;;10.30;75.30;;;11.90;56.34;95864.91;5008407;28;20076;-49
2024/03/03 10:16:16;;;;;;;23.97;16.53;;;10.30;75.30;;;11.90;56.66;95870.22;5007822;28;20056;-48
2024/03/03 10:18:57;;;;;;;23.93;17.07;;;10.30;75.50;;;11.91;56.43;95878.03;4991761;28;20041;-48
2024/03/03 10:21:25;;;;;;;23.97;15.73;;;10.30;75.60;;;11.92;56.54;95873.50;5010777;28;20041;-51